Airfield :
LOGIN :

Register | Disclaimer

   EN    FR    IT 

 










Legend :    VFR   Marginal VFR   IFR   Intensive IFR   Very Intensive IFR
Visi :
Ceiling :
>= 8 km
>= 3000ft
5 to 8 km
1000 to 3000 ft
1500m to 5 km
500 to 1000 ft
800 to 1500m
200 to 500 ft
< 800m
< 200 ft
Symbols :   Thunderstorms  Fog  Heavy snow  Heavy precipitations  Wind > 20 kt
SIGMETs :     Misc.  Thunderstorms  Icing  Turbulence  Mountain Waves  Volcanic Ashes







- Airport Elevation : 157 ft
- IATA code : LIL
- Download approach charts


LFQQ - Lille Lesquin

CURRENT METAR :
  • 200730Z AUTO 03003KT 350V070 CAVOK 16/07 Q1028 NOSIG

EXPIRED METARs :
  • 200700Z AUTO VRB02KT CAVOK 15/07 Q1028 NOSIG
  • 200630Z AUTO VRB01KT 7000 NSC 12/07 Q1028 NOSIG
  • 200600Z AUTO VRB02KT 5000 BR NSC 10/07 Q1028 NOSIG
  • 200530Z AUTO 34002KT 5000 BR NSC 09/06 Q1028 NOSIG
  • 200500Z AUTO 30002KT 5000 BR NSC 08/06 Q1028 NOSIG

TAF TAF LFQQ
Valid from the 20 at 06:00 until the 21 at 12:00 UTC


200500Z 2006/2112 VRB03KT 4000 BR NSC
BECMG 2006/2008 CAVOK
BECMG 2009/2011 06010KT
ATIS : +33 3 20 16 19 54
No reported NOTAMs for that airfield.



MET'MAP, your aeronautical weather chart ! - Copyright ORBIFLY December 2007 - Disclaimer

ORBIFLY MET'MAP TEAM :

Programming & Development : Alexandra Zaïnal
Concept & Development : Baudouin d'Aumeries
Co-Development & Prog : Marc-Olivier Méhu
Technical & hardware support : Manuel Goepfert

Contact : metmap@orbifly.com




SOURCES & CREDITS :

   NOAA